Berit — ZDHX2 — position and weather

sailwx.info

Track history (hours):
 
Tides and Currents Weather Stations Pressure Air Temp Water Temp Dewpoint Dewpoint Depression Visibility Wind Speed Wind Dir Waves Ship Positions

Berit

Last reported at 2016-Apr-28 14:17 UTC. Time now 2016-Apr-28 23:50 UTC.
Position N 55°15' W 001°12'.

Length 83 m; draft 3.5 m.

Type: Cargo ship. MMSI: 236386000.

Date/timePositionNaut miles runAvg speedWind from/ knotsBaromVisibWave heightAir tempDewpointWater temp
2016-Apr-28 14:17N 55°15' W 001°12'811.4
2016-Apr-28 13:34N 55°07' W 001°17'10 8.6
2016-Apr-28 12:25N 54°59' W 001°27'0 0.0
2016-Apr-27 07:05N 54°59' W 001°27'3 6.6
2016-Apr-27 06:33N 55°01' W 001°22'5 4.6
2016-Apr-27 05:33N 55°06' W 001°20'7 7.0
2016-Apr-27 04:33N 55°13' W 001°21'56 8.1
2016-Apr-26 21:33N 56°07' W 001°49'9 8.9
2016-Apr-26 20:33N 56°15' W 001°57'8 8.3
2016-Apr-26 19:33N 56°22' W 002°03'9 9.4
2016-Apr-26 18:34N 56°30' W 002°11'  
2016-Apr-19 22:33N 59°17' E 004°59'8 7.6
2016-Apr-19 21:33N 59°10' E 005°05'8 7.6
2016-Apr-19 20:33N 59°07' E 005°19'9 8.7
2016-Apr-19 19:33N 59°04' E 005°34'8 8.3
2016-Apr-19 18:33N 58°58' E 005°47'2 1.6
2016-Apr-19 17:31N 58°57' E 005°45'0 0.0
2016-Apr-19 16:31N 58°57' E 005°45'0 0.0
2016-Apr-19 15:31N 58°57' E 005°45'0 0.0
2016-Apr-19 14:34N 58°57' E 005°45'0 0.0
2016-Apr-19 13:31N 58°57' E 005°45'0 0.0
2016-Apr-19 12:31N 58°57' E 005°45'0 0.0
2016-Apr-19 11:31N 58°57' E 005°45'0 0.0
2016-Apr-19 10:28N 58°57' E 005°45'0 0.0
2016-Apr-19 09:31N 58°57' E 005°45'0 0.0
2016-Apr-19 08:25N 58°57' E 005°45'0 0.0
2016-Apr-19 07:31N 58°57' E 005°45'0 0.0
2016-Apr-19 06:34N 58°57' E 005°45'0 0.0
2016-Apr-19 05:28N 58°57' E 005°45'0 0.0
2016-Apr-19 04:28N 58°57' E 005°45'0 0.0
2016-Apr-19 03:31N 58°57' E 005°45'0 0.0
2016-Apr-19 02:31N 58°57' E 005°45'0 0.0
2016-Apr-19 01:31N 58°57' E 005°45'0 0.0
2016-Apr-19 00:31N 58°57' E 005°45'0 0.0
2016-Apr-18 23:31N 58°57' E 005°45'0 0.0
2016-Apr-18 22:31N 58°57' E 005°45'0 0.0
2016-Apr-18 21:31N 58°57' E 005°45'0 0.0
2016-Apr-18 20:31N 58°57' E 005°45'0 0.0
2016-Apr-18 19:31N 58°57' E 005°45'0 0.0
2016-Apr-18 18:31N 58°57' E 005°45'0 0.0
2016-Apr-18 17:31N 58°57' E 005°45'0 0.0
2016-Apr-18 16:31N 58°57' E 005°45'0 0.0
2016-Apr-18 15:31N 58°57' E 005°45'0 0.0
2016-Apr-18 14:31N 58°57' E 005°45'  
Track history (hours):
 
Tides and Currents Weather Stations Pressure Air Temp Water Temp Dewpoint Dewpoint Depression Visibility Wind Speed Wind Dir Waves Ship Positions

Berit

Last reported at 2016-Apr-28 14:17 UTC. Time now 2016-Apr-28 23:50 UTC.
Position N 55°15' W 001°12'.

Length 83 m; draft 3.5 m.

Type: Cargo ship. MMSI: 236386000.

Date/timePositionNaut miles runAvg speedWind from/ knotsBaromVisibWave heightAir tempDewpointWater temp
2016-Apr-28 14:17N 55°15' W 001°12'811.4
2016-Apr-28 13:34N 55°07' W 001°17'10 8.6
2016-Apr-28 12:25N 54°59' W 001°27'0 0.0
2016-Apr-27 07:05N 54°59' W 001°27'3 6.6
2016-Apr-27 06:33N 55°01' W 001°22'5 4.6
2016-Apr-27 05:33N 55°06' W 001°20'7 7.0
2016-Apr-27 04:33N 55°13' W 001°21'56 8.1
2016-Apr-26 21:33N 56°07' W 001°49'9 8.9
2016-Apr-26 20:33N 56°15' W 001°57'8 8.3
2016-Apr-26 19:33N 56°22' W 002°03'9 9.4
2016-Apr-26 18:34N 56°30' W 002°11'  
2016-Apr-19 22:33N 59°17' E 004°59'8 7.6
2016-Apr-19 21:33N 59°10' E 005°05'8 7.6
2016-Apr-19 20:33N 59°07' E 005°19'9 8.7
2016-Apr-19 19:33N 59°04' E 005°34'8 8.3
2016-Apr-19 18:33N 58°58' E 005°47'2 1.6
2016-Apr-19 17:31N 58°57' E 005°45'0 0.0
2016-Apr-19 16:31N 58°57' E 005°45'0 0.0
2016-Apr-19 15:31N 58°57' E 005°45'0 0.0
2016-Apr-19 14:34N 58°57' E 005°45'0 0.0
2016-Apr-19 13:31N 58°57' E 005°45'0 0.0
2016-Apr-19 12:31N 58°57' E 005°45'0 0.0
2016-Apr-19 11:31N 58°57' E 005°45'0 0.0
2016-Apr-19 10:28N 58°57' E 005°45'0 0.0
2016-Apr-19 09:31N 58°57' E 005°45'0 0.0
2016-Apr-19 08:25N 58°57' E 005°45'0 0.0
2016-Apr-19 07:31N 58°57' E 005°45'0 0.0
2016-Apr-19 06:34N 58°57' E 005°45'0 0.0
2016-Apr-19 05:28N 58°57' E 005°45'0 0.0
2016-Apr-19 04:28N 58°57' E 005°45'0 0.0
2016-Apr-19 03:31N 58°57' E 005°45'0 0.0
2016-Apr-19 02:31N 58°57' E 005°45'0 0.0
2016-Apr-19 01:31N 58°57' E 005°45'0 0.0
2016-Apr-19 00:31N 58°57' E 005°45'0 0.0
2016-Apr-18 23:31N 58°57' E 005°45'0 0.0
2016-Apr-18 22:31N 58°57' E 005°45'0 0.0
2016-Apr-18 21:31N 58°57' E 005°45'0 0.0
2016-Apr-18 20:31N 58°57' E 005°45'0 0.0
2016-Apr-18 19:31N 58°57' E 005°45'0 0.0
2016-Apr-18 18:31N 58°57' E 005°45'0 0.0
2016-Apr-18 17:31N 58°57' E 005°45'0 0.0
2016-Apr-18 16:31N 58°57' E 005°45'0 0.0
2016-Apr-18 15:31N 58°57' E 005°45'0 0.0
2016-Apr-18 14:31N 58°57' E 005°45'  

Dump ship's entire track history